Terminal Aerodrome Forecast
Issued by NWS

Home | Current Version | Previous Version | Text Only | Print | Product List | Glossary On
Versions: 1 2 3 4 5 6 7 8 9 10 11 12 13 14 15 16 17 18 19 20 21 22 23 24 25 26 27
548
FTUS41 KPBZ 170103 AAA
TAFZZV
TAF AMD
KZZV 170103Z 1701/1724 12003KT 4SM BR BKN030
     FM170500 14004KT 4SM -SHRA OVC020
     FM170700 14004KT 2SM -RA OVC015
     FM171200 17008KT 2SM -SHRA OVC007
     FM171500 19009KT 3SM -SHRA OVC010
     FM171900 21010G19KT P6SM VCSH BKN015=

USA.gov is the U.S. government's official web portal to all federal, state and local government web resources and services.